Time;durP1;ratioP1;P1;durP2;ratioP2;P2;SDS_P1;SDS_P2;PMS_P1;PMS_P2;Temp;Humidity;BMP_temperature;BMP_pressure;BME280_temperature;BME280_humidity;BME280_pressure;Samples;Min_cycle;Max_cycle;Signal;HPM_P1;HPM_P2
2022/09/19 00:00:42;;;;;;;10.27;2.08;;;11.80;99.90;;;;;;5091376;28;20043;-69
2022/09/19 00:03:08;;;;;;;11.88;1.88;;;11.70;99.90;;;;;;5092453;28;20432;-70
2022/09/19 00:05:40;;;;;;;6.75;1.95;;;11.70;99.90;;;;;;5092039;28;20042;-70
2022/09/19 00:08:07;;;;;;;13.32;2.35;;;11.70;99.90;;;;;;5092362;28;20484;-70
2022/09/19 00:10:40;;;;;;;9.27;1.98;;;11.70;99.90;;;;;;5091009;28;20051;-69
2022/09/19 00:13:09;;;;;;;8.88;1.67;;;11.70;99.90;;;;;;5091902;28;20089;-70
2022/09/19 00:15:36;;;;;;;9.15;2.40;;;11.70;99.90;;;;;;5091968;28;20078;-69
2022/09/19 00:18:03;;;;;;;9.57;1.77;;;11.70;99.90;;;;;;5092189;28;20097;-69
2022/09/19 00:20:29;;;;;;;6.97;1.70;;;11.80;99.90;;;;;;5092158;28;20632;-69
2022/09/19 00:25:39;;;;;;;11.00;1.67;;;11.80;99.90;;;;;;5091871;28;20424;-69
2022/09/19 00:28:05;;;;;;;10.30;1.70;;;11.90;99.90;;;;;;5092043;28;20040;-70
2022/09/19 00:30:30;;;;;;;6.78;2.03;;;11.80;99.90;;;;;;5092030;28;20430;-70
2022/09/19 00:32:58;;;;;;;8.32;1.70;;;11.80;99.90;;;;;;5092141;28;20040;-69
2022/09/19 00:35:24;;;;;;;11.77;2.25;;;11.80;99.90;;;;;;5091911;28;20412;-69
2022/09/19 00:37:49;;;;;;;12.20;1.90;;;11.80;99.90;;;;;;5092146;28;20051;-69
2022/09/19 00:40:15;;;;;;;8.98;2.15;;;11.90;99.90;;;;;;5092034;28;20419;-70
2022/09/19 00:42:40;;;;;;;6.60;1.98;;;11.80;99.90;;;;;;5092057;28;20488;-70
2022/09/19 00:45:16;;;;;;;10.40;1.80;;;11.80;99.90;;;;;;5091579;28;20040;-70
2022/09/19 00:47:46;;;;;;;7.05;1.50;;;11.90;99.90;;;;;;5090789;28;20040;-69
2022/09/19 00:50:21;;;;;;;7.10;1.65;;;11.80;99.90;;;;;;5091947;28;20103;-69
2022/09/19 00:52:52;;;;;;;6.90;2.00;;;11.90;99.90;;;;;;5091943;28;20047;-69
2022/09/19 00:55:18;;;;;;;10.95;2.38;;;11.80;99.90;;;;;;5091561;28;20037;-69
2022/09/19 00:57:57;;;;;;;8.52;1.70;;;11.80;99.90;;;;;;5091644;28;20161;-69
2022/09/19 01:00:23;;;;;;;5.15;1.42;;;11.80;99.90;;;;;;5091926;28;20048;-70
2022/09/19 01:02:49;;;;;;;13.02;1.73;;;11.80;99.90;;;;;;5091837;28;20042;-70
2022/09/19 01:05:16;;;;;;;12.82;2.30;;;11.80;99.90;;;;;;5091504;28;20123;-69
2022/09/19 01:08:07;;;;;;;9.45;2.28;;;11.80;99.90;;;;;;5091693;28;20040;-69
2022/09/19 01:10:44;;;;;;;15.85;3.25;;;11.70;99.90;;;;;;5091833;28;20054;-69
2022/09/19 01:13:30;;;;;;;7.13;1.70;;;11.70;99.90;;;;;;5091661;28;20040;-69
2022/09/19 01:16:02;;;;;;;12.35;2.00;;;11.80;99.90;;;;;;5090098;28;20503;-68
2022/09/19 01:18:50;;;;;;;8.50;1.60;;;11.80;99.90;;;;;;5090259;28;20119;-69
2022/09/19 01:21:39;;;;;;;9.27;1.90;;;11.80;99.90;;;;;;5091856;28;20071;-69
2022/09/19 01:24:14;;;;;;;15.02;2.33;;;11.70;99.90;;;;;;5091390;28;20071;-69
2022/09/19 01:26:45;;;;;;;10.05;2.30;;;11.80;99.90;;;;;;5093576;28;20044;-70
2022/09/19 01:29:20;;;;;;;9.65;2.08;;;11.70;99.90;;;;;;5094347;28;20412;-69
2022/09/19 01:31:51;;;;;;;7.35;1.75;;;11.70;99.90;;;;;;5095464;28;20381;-69
2022/09/19 01:34:50;;;;;;;7.47;2.30;;;11.70;99.90;;;;;;5095090;28;20036;-69
2022/09/19 01:37:31;;;;;;;12.43;2.42;;;11.70;99.90;;;;;;5095213;28;20036;-69
2022/09/19 01:40:00;;;;;;;12.07;2.75;;;11.70;99.90;;;;;;5095325;28;20043;-69
2022/09/19 01:42:26;;;;;;;12.95;2.35;;;11.70;99.90;;;;;;5095167;28;20061;-70
2022/09/19 01:44:53;;;;;;;8.40;1.70;;;11.70;99.90;;;;;;5094837;28;20040;-70
2022/09/19 01:47:52;;;;;;;9.65;1.92;;;11.80;99.90;;;;;;5093705;28;20040;-70
2022/09/19 01:50:50;;;;;;;9.40;1.83;;;11.80;99.90;;;;;;5093750;28;20120;-69
2022/09/19 01:53:46;;;;;;;10.65;2.50;;;11.80;99.90;;;;;;5060211;28;20051;-69
2022/09/19 01:56:37;;;;;;;10.23;2.10;;;11.80;99.90;;;;;;5094777;28;20036;-70
2022/09/19 01:59:30;;;;;;;9.30;1.92;;;11.80;99.90;;;;;;5094716;28;20416;-69
2022/09/19 02:02:36;;;;;;;10.60;2.33;;;11.80;99.90;;;;;;5093555;28;20040;-69
2022/09/19 02:05:19;;;;;;;10.60;2.17;;;11.80;99.90;;;;;;5093118;28;20511;-69
2022/09/19 02:07:45;;;;;;;8.35;2.67;;;11.80;99.90;;;;;;5094689;28;20075;-69
2022/09/19 02:10:26;;;;;;;8.05;2.00;;;11.80;99.90;;;;;;5094464;28;20071;-69
2022/09/19 02:12:56;;;;;;;10.05;2.30;;;11.80;99.90;;;;;;5094415;28;20079;-69
2022/09/19 02:15:29;;;;;;;9.02;1.88;;;11.80;99.90;;;;;;5092915;28;20125;-69
2022/09/19 02:18:07;;;;;;;12.43;2.45;;;11.80;99.90;;;;;;5094404;28;20480;-69
2022/09/19 02:20:34;;;;;;;13.32;2.10;;;11.80;99.90;;;;;;5094433;28;20051;-70
2022/09/19 02:23:11;;;;;;;11.43;2.35;;;11.80;99.90;;;;;;5093023;28;20170;-69
2022/09/19 02:25:38;;;;;;;16.45;2.28;;;11.80;99.90;;;;;;5093999;28;20051;-69
2022/09/19 02:28:16;;;;;;;10.48;2.00;;;11.80;99.90;;;;;;5094168;28;20119;-69
2022/09/19 02:30:42;;;;;;;10.75;2.65;;;11.80;99.90;;;;;;5093005;28;20039;-69
2022/09/19 02:33:10;;;;;;;9.45;1.70;;;11.80;99.90;;;;;;5094071;28;20036;-69
2022/09/19 02:35:54;;;;;;;11.43;2.85;;;11.80;99.90;;;;;;5093717;28;20032;-69
2022/09/19 02:38:23;;;;;;;11.23;1.88;;;11.80;99.90;;;;;;5092600;28;20047;-69
2022/09/19 02:41:12;;;;;;;12.88;2.05;;;11.80;99.90;;;;;;5094077;28;20040;-69
2022/09/19 02:43:47;;;;;;;13.20;2.72;;;11.80;99.90;;;;;;5092572;28;20050;-69
2022/09/19 02:46:23;;;;;;;14.65;2.60;;;11.80;99.90;;;;;;5093861;28;20052;-68
2022/09/19 02:49:07;;;;;;;11.05;2.28;;;11.70;99.90;;;;;;5093980;28;20180;-69
2022/09/19 02:51:51;;;;;;;14.38;2.83;;;11.80;99.90;;;;;;5093907;28;20032;-69
2022/09/19 02:54:26;;;;;;;12.32;2.10;;;11.70;99.90;;;;;;5093220;28;20131;-69
2022/09/19 02:56:57;;;;;;;15.00;2.40;;;11.80;99.90;;;;;;5093938;28;20040;-69
2022/09/19 02:59:26;;;;;;;10.82;2.20;;;11.80;99.90;;;;;;5093770;28;20036;-69
2022/09/19 03:01:58;;;;;;;16.67;3.13;;;11.80;99.90;;;;;;5093651;28;20039;-69
2022/09/19 03:04:29;;;;;;;13.77;2.35;;;11.80;99.90;;;;;;5093269;28;20036;-69
2022/09/19 03:07:24;;;;;;;12.63;2.55;;;11.80;99.90;;;;;;5092212;28;20035;-69
2022/09/19 03:10:02;;;;;;;11.40;1.95;;;11.80;99.90;;;;;;5093446;28;20084;-69
2022/09/19 03:12:50;;;;;;;18.40;3.65;;;11.80;99.90;;;;;;5093415;28;20115;-70
2022/09/19 03:15:35;;;;;;;10.80;2.20;;;11.80;99.90;;;;;;5092961;28;20036;-70
2022/09/19 03:18:04;;;;;;;19.60;2.70;;;11.80;99.90;;;;;;5093503;28;20040;-70
2022/09/19 03:20:33;;;;;;;13.18;2.03;;;11.80;99.90;;;;;;5092187;28;20391;-69
2022/09/19 03:22:59;;;;;;;10.77;2.13;;;11.80;99.90;;;;;;5093159;28;20127;-69
2022/09/19 03:25:26;;;;;;;14.88;2.75;;;11.80;99.90;;;;;;5092681;28;20123;-69
2022/09/19 03:27:51;;;;;;;13.82;2.63;;;11.80;99.90;;;;;;5074868;28;20047;-69
2022/09/19 03:30:17;;;;;;;10.00;2.28;;;11.80;99.90;;;;;;5093166;28;20392;-69
2022/09/19 03:32:43;;;;;;;9.93;2.53;;;11.80;99.90;;;;;;5092894;28;20076;-69
2022/09/19 03:35:10;;;;;;;11.40;1.95;;;11.70;99.90;;;;;;5091662;28;20040;-69
2022/09/19 03:37:35;;;;;;;9.73;2.20;;;11.80;99.90;;;;;;5092840;28;20043;-69
2022/09/19 03:40:02;;;;;;;8.13;2.10;;;11.70;99.90;;;;;;5091561;28;20048;-69
2022/09/19 03:42:31;;;;;;;9.57;2.05;;;11.80;99.90;;;;;;5092686;28;20044;-69
2022/09/19 03:44:57;;;;;;;7.38;1.98;;;11.70;99.90;;;;;;5092659;28;20048;-69
2022/09/19 03:47:23;;;;;;;13.50;2.03;;;11.70;99.90;;;;;;5092707;28;20085;-69
2022/09/19 03:49:51;;;;;;;12.80;2.15;;;11.70;99.90;;;;;;5092023;28;20488;-69
2022/09/19 03:52:17;;;;;;;16.90;2.85;;;11.70;99.90;;;;;;5092643;28;20032;-69
2022/09/19 03:54:44;;;;;;;15.38;1.98;;;11.70;99.90;;;;;;5092177;28;20040;-69
2022/09/19 03:57:10;;;;;;;16.73;2.50;;;11.70;99.90;;;;;;5092808;28;20415;-69
2022/09/19 03:59:38;;;;;;;11.55;2.00;;;11.70;99.90;;;;;;5092653;28;20040;-69
2022/09/19 04:02:04;;;;;;;13.45;1.95;;;11.70;99.90;;;;;;5092608;28;20036;-69
2022/09/19 04:04:30;;;;;;;16.38;1.77;;;11.70;99.90;;;;;;5092056;28;20089;-69
2022/09/19 04:06:56;;;;;;;10.55;2.20;;;11.70;99.90;;;;;;5092292;28;20093;-69
2022/09/19 04:09:21;;;;;;;6.18;1.67;;;11.70;99.90;;;;;;5090951;28;20039;-69
2022/09/19 04:11:47;;;;;;;10.45;2.05;;;11.70;99.90;;;;;;5092500;28;20572;-69
2022/09/19 04:14:13;;;;;;;13.50;2.33;;;11.70;99.90;;;;;;5091929;28;20039;-69
2022/09/19 04:16:38;;;;;;;12.40;2.00;;;11.70;99.90;;;;;;5091173;28;20161;-69
2022/09/19 04:19:10;;;;;;;9.68;1.98;;;11.60;99.90;;;;;;5092251;28;20066;-69
2022/09/19 04:21:36;;;;;;;13.68;2.30;;;11.60;99.90;;;;;;5091106;28;20115;-69
2022/09/19 04:24:02;;;;;;;19.73;2.45;;;11.70;99.90;;;;;;5091704;28;20117;-69
2022/09/19 04:26:27;;;;;;;12.00;2.28;;;11.60;99.90;;;;;;5092034;28;20040;-69
2022/09/19 04:28:53;;;;;;;11.70;2.42;;;11.60;99.90;;;;;;5092174;28;20048;-69
2022/09/19 04:31:18;;;;;;;10.30;2.08;;;11.60;99.90;;;;;;5092135;28;20040;-69
2022/09/19 04:33:44;;;;;;;14.38;2.33;;;11.60;99.90;;;;;;5091808;28;20484;-70
2022/09/19 04:36:10;;;;;;;12.95;2.15;;;11.70;99.90;;;;;;5091903;28;20044;-69
2022/09/19 04:38:36;;;;;;;8.20;1.63;;;11.60;99.90;;;;;;5091841;28;20496;-69
2022/09/19 04:41:03;;;;;;;14.18;1.95;;;11.70;99.90;;;;;;5092124;28;20040;-69
2022/09/19 04:43:29;;;;;;;14.23;2.90;;;11.60;99.90;;;;;;5090845;28;20093;-69
2022/09/19 04:45:56;;;;;;;10.40;1.83;;;11.70;99.90;;;;;;5091776;28;20044;-69
2022/09/19 04:48:22;;;;;;;8.65;2.10;;;11.70;99.90;;;;;;5091859;28;20667;-69
2022/09/19 04:50:50;;;;;;;8.95;2.58;;;11.70;99.90;;;;;;5091864;28;20043;-69
2022/09/19 04:53:23;;;;;;;9.65;2.20;;;11.70;99.90;;;;;;5090435;28;20165;-69
2022/09/19 04:55:53;;;;;;;14.50;2.30;;;11.70;99.90;;;;;;5091834;28;20085;-69
2022/09/19 04:58:20;;;;;;;12.15;2.03;;;11.80;99.90;;;;;;5091890;28;20048;-70
2022/09/19 05:00:54;;;;;;;12.77;1.80;;;11.70;99.90;;;;;;5094597;28;20631;-68
2022/09/19 05:03:22;;;;;;;17.00;2.45;;;11.70;99.90;;;;;;5095828;28;20059;-69
2022/09/19 05:05:51;;;;;;;10.07;1.65;;;11.80;99.90;;;;;;5094288;28;20544;-69
2022/09/19 05:08:20;;;;;;;12.02;2.60;;;11.70;99.90;;;;;;5095743;28;20040;-69
2022/09/19 05:10:47;;;;;;;13.60;2.38;;;11.80;99.90;;;;;;5095941;28;20185;-69
2022/09/19 05:13:13;;;;;;;19.48;2.78;;;11.80;99.90;;;;;;5094465;28;20047;-69
2022/09/19 05:15:41;;;;;;;13.77;2.42;;;11.80;99.90;;;;;;5095446;28;20043;-69
2022/09/19 05:18:10;;;;;;;12.40;2.88;;;11.80;99.90;;;;;;5095437;28;20129;-69
2022/09/19 05:20:37;;;;;;;13.73;2.08;;;11.80;99.90;;;;;;5095726;28;20044;-69
2022/09/19 05:23:03;;;;;;;16.17;2.50;;;11.80;99.90;;;;;;5095587;28;20063;-69
2022/09/19 05:25:30;;;;;;;7.47;2.03;;;11.80;99.90;;;;;;5092620;28;20075;-69
2022/09/19 05:27:57;;;;;;;11.43;1.90;;;11.80;99.90;;;;;;5092800;28;20492;-69
2022/09/19 05:30:24;;;;;;;11.38;2.40;;;11.80;99.90;;;;;;5095327;28;20067;-69
2022/09/19 05:32:52;;;;;;;7.78;1.98;;;11.90;99.90;;;;;;5094630;28;20036;-69
2022/09/19 05:35:20;;;;;;;13.30;2.35;;;11.80;99.90;;;;;;5094173;28;20036;-69
2022/09/19 05:37:46;;;;;;;12.75;2.13;;;11.80;99.90;;;;;;5095105;28;20119;-69
2022/09/19 05:40:11;;;;;;;10.70;2.22;;;11.90;99.90;;;;;;5095196;28;20126;-69
2022/09/19 05:42:46;;;;;;;10.77;2.38;;;11.80;99.90;;;;;;5095072;28;20519;-69
2022/09/19 05:45:12;;;;;;;17.40;2.63;;;11.90;99.90;;;;;;5094716;28;20074;-69
2022/09/19 05:47:39;;;;;;;14.07;2.30;;;11.80;99.90;;;;;;5093659;28;20128;-69
2022/09/19 05:50:11;;;;;;;14.38;2.75;;;11.90;99.90;;;;;;5095185;28;20510;-69
2022/09/19 05:55:27;;;;;;;12.85;2.65;;;11.80;99.90;;;;;;5094679;28;20044;-69
2022/09/19 05:57:55;;;;;;;12.48;2.22;;;11.90;99.90;;;;;;5094731;28;20478;-69
2022/09/19 06:00:23;;;;;;;12.05;2.00;;;11.80;99.90;;;;;;5094981;28;20040;-69
2022/09/19 06:03:03;;;;;;;10.35;2.00;;;11.90;99.90;;;;;;5094742;28;20144;-69
2022/09/19 06:05:32;;;;;;;14.95;2.22;;;11.90;99.90;;;;;;5094533;28;20093;-69
2022/09/19 06:07:58;;;;;;;20.17;2.92;;;11.90;99.90;;;;;;5094539;28;20044;-69
2022/09/19 06:10:25;;;;;;;12.70;2.60;;;11.90;99.90;;;;;;5094592;28;20032;-70
2022/09/19 06:12:53;;;;;;;15.85;3.00;;;11.90;99.90;;;;;;5092578;28;20040;-69
2022/09/19 06:15:21;;;;;;;10.32;1.88;;;11.90;99.90;;;;;;5094337;28;20107;-69
2022/09/19 06:17:49;;;;;;;15.68;2.60;;;11.90;99.90;;;;;;5094576;28;20545;-69
2022/09/19 06:20:15;;;;;;;13.20;2.35;;;11.90;99.90;;;;;;5094420;28;20040;-69
2022/09/19 06:22:41;;;;;;;15.90;2.47;;;11.90;99.90;;;;;;5094247;28;20076;-69
2022/09/19 06:25:08;;;;;;;16.00;2.40;;;11.90;99.90;;;;;;5094009;28;20540;-69
2022/09/19 06:27:35;;;;;;;10.70;1.85;;;11.90;99.90;;;;;;5094163;28;20044;-69
2022/09/19 06:30:02;;;;;;;10.52;2.55;;;11.90;99.90;;;;;;5094375;28;20036;-69
2022/09/19 06:32:27;;;;;;;9.63;1.80;;;11.90;99.90;;;;;;5094810;28;20032;-69
2022/09/19 06:34:53;;;;;;;14.55;2.40;;;12.00;99.90;;;;;;5093798;28;20042;-69
2022/09/19 06:37:19;;;;;;;9.43;1.90;;;12.00;99.90;;;;;;5094048;28;20040;-69
2022/09/19 06:39:44;;;;;;;10.93;2.05;;;12.00;99.90;;;;;;5092895;28;20048;-69
2022/09/19 06:42:10;;;;;;;7.80;1.90;;;12.10;99.90;;;;;;5093979;28;20048;-69
2022/09/19 06:44:35;;;;;;;10.82;1.85;;;12.10;99.90;;;;;;5093680;28;20044;-69
2022/09/19 06:47:01;;;;;;;13.98;2.55;;;12.20;99.90;;;;;;5093930;28;20040;-69
2022/09/19 06:49:27;;;;;;;15.48;2.25;;;12.20;99.90;;;;;;5104284;28;20043;-69
2022/09/19 06:51:54;;;;;;;17.15;2.28;;;12.10;99.90;;;;;;5095809;28;20476;-69
2022/09/19 06:54:22;;;;;;;17.02;2.45;;;12.20;99.90;;;;;;5113816;28;20097;-69
2022/09/19 06:56:48;;;;;;;9.32;1.98;;;12.20;99.90;;;;;;5114286;27;20031;-69
2022/09/19 06:59:14;;;;;;;12.25;2.38;;;12.20;99.90;;;;;;5114263;28;20127;-70
2022/09/19 07:01:39;;;;;;;15.05;2.08;;;12.20;99.90;;;;;;5114050;27;20114;-70
2022/09/19 07:04:05;;;;;;;8.32;2.20;;;12.20;99.90;;;;;;5113590;28;20077;-70
2022/09/19 07:06:34;;;;;;;14.98;2.75;;;12.20;99.90;;;;;;5113947;28;20079;-70
2022/09/19 07:09:02;;;;;;;9.77;2.15;;;12.20;99.90;;;;;;5113948;28;20123;-69
2022/09/19 07:11:28;;;;;;;6.68;1.90;;;12.20;99.90;;;;;;5109206;28;20075;-69
2022/09/19 07:13:53;;;;;;;11.45;2.33;;;12.20;99.90;;;;;;5101132;28;20031;-70
2022/09/19 07:16:19;;;;;;;17.88;3.22;;;12.30;99.90;;;;;;5102274;28;20181;-69
2022/09/19 07:18:44;;;;;;;14.63;2.75;;;12.30;99.90;;;;;;5102982;28;20044;-70
2022/09/19 07:21:10;;;;;;;11.85;2.70;;;12.40;99.90;;;;;;5103253;28;20059;-69
2022/09/19 07:23:36;;;;;;;13.13;2.10;;;12.40;99.90;;;;;;5099883;28;20043;-69
2022/09/19 07:26:05;;;;;;;10.07;2.53;;;12.50;99.90;;;;;;5104984;28;20044;-70
2022/09/19 07:28:31;;;;;;;13.57;2.05;;;12.50;99.90;;;;;;5101035;28;20036;-70
2022/09/19 07:30:59;;;;;;;15.52;2.28;;;12.50;99.90;;;;;;5102165;28;20039;-69
2022/09/19 07:33:25;;;;;;;9.45;2.38;;;12.50;99.90;;;;;;5095701;28;20043;-68
2022/09/19 07:35:53;;;;;;;9.50;1.50;;;12.50;99.90;;;;;;5092954;28;20028;-69
2022/09/19 07:38:21;;;;;;;9.18;1.70;;;12.60;99.90;;;;;;5092836;28;20040;-69
2022/09/19 07:40:47;;;;;;;14.63;1.98;;;12.60;99.90;;;;;;5092631;28;20043;-69
2022/09/19 07:43:14;;;;;;;6.80;1.88;;;12.60;99.90;;;;;;5091466;28;20047;-69
2022/09/19 07:45:48;;;;;;;15.00;1.77;;;12.60;99.90;;;;;;5092624;28;20040;-69
2022/09/19 07:48:15;;;;;;;9.02;2.10;;;12.60;99.90;;;;;;5091349;28;20089;-69
2022/09/19 07:50:41;;;;;;;6.55;1.58;;;12.60;99.90;;;;;;5092798;28;20028;-69
2022/09/19 07:53:11;;;;;;;10.38;1.95;;;12.60;99.90;;;;;;5092496;28;20064;-69
2022/09/19 07:55:37;;;;;;;11.70;1.52;;;12.70;99.90;;;;;;5092315;28;20518;-69
2022/09/19 07:58:04;;;;;;;10.25;1.73;;;12.70;99.90;;;;;;5091520;28;20123;-69
2022/09/19 08:00:32;;;;;;;12.05;1.92;;;12.70;99.90;;;;;;5091287;28;20047;-69
2022/09/19 08:03:03;;;;;;;15.70;2.00;;;12.70;99.90;;;;;;5092353;28;20107;-69
2022/09/19 08:05:34;;;;;;;15.40;1.98;;;12.80;99.90;;;;;;5092130;28;20089;-70
2022/09/19 08:08:00;;;;;;;18.10;2.03;;;12.80;99.90;;;;;;5092276;28;20534;-70
2022/09/19 08:10:25;;;;;;;17.15;2.47;;;12.90;99.90;;;;;;5091334;28;20553;-69
2022/09/19 08:12:51;;;;;;;10.02;2.28;;;12.90;99.90;;;;;;5092397;28;20115;-70
2022/09/19 08:15:18;;;;;;;13.63;2.30;;;13.00;99.90;;;;;;5092146;28;20062;-69
2022/09/19 08:18:02;;;;;;;14.20;2.17;;;13.00;99.90;;;;;;5092204;28;20040;-69
2022/09/19 08:20:31;;;;;;;10.43;2.20;;;13.00;99.90;;;;;;5090997;28;20055;-69
2022/09/19 08:23:07;;;;;;;16.17;2.47;;;13.10;99.90;;;;;;5092222;28;20128;-69
2022/09/19 08:25:35;;;;;;;17.83;2.53;;;13.10;99.90;;;;;;5090448;28;20498;-69
2022/09/19 08:28:04;;;;;;;10.20;1.67;;;13.20;99.90;;;;;;5092138;28;20039;-69
2022/09/19 08:30:31;;;;;;;11.82;2.13;;;13.20;99.90;;;;;;5090557;28;20036;-69
2022/09/19 08:32:59;;;;;;;14.45;2.30;;;13.30;99.90;;;;;;5090995;28;20059;-69
2022/09/19 08:35:25;;;;;;;13.35;1.88;;;13.30;99.90;;;;;;5091449;28;20075;-69
2022/09/19 08:37:55;;;;;;;14.65;2.00;;;13.30;99.90;;;;;;5090805;28;20080;-69
2022/09/19 08:40:34;;;;;;;11.35;2.55;;;13.30;99.90;;;;;;5091943;28;20063;-69
2022/09/19 08:43:37;;;;;;;10.77;1.70;;;13.40;99.90;;;;;;5090066;28;20486;-69
2022/09/19 08:46:19;;;;;;;8.70;1.77;;;13.40;99.90;;;;;;5091690;28;20047;-69
2022/09/19 08:48:45;;;;;;;16.73;1.85;;;13.50;99.90;;;;;;5091850;28;20111;-69
2022/09/19 08:51:18;;;;;;;11.15;2.20;;;13.50;99.90;;;;;;5091839;28;20444;-69
2022/09/19 08:53:50;;;;;;;13.82;2.25;;;13.50;99.90;;;;;;5090353;28;20054;-70
2022/09/19 08:56:18;;;;;;;13.18;3.20;;;13.60;99.90;;;;;;5093353;28;20508;-69
2022/09/19 08:58:54;;;;;;;9.50;2.22;;;13.60;99.90;;;;;;5102096;28;20055;-70
2022/09/19 09:01:21;;;;;;;10.73;2.15;;;13.70;99.90;;;;;;5112193;28;20052;-70
2022/09/19 09:04:15;;;;;;;22.90;2.35;;;13.70;99.90;;;;;;5111651;28;20071;-69
2022/09/19 09:06:53;;;;;;;14.52;2.00;;;13.80;99.90;;;;;;5112315;28;20403;-68
2022/09/19 09:09:41;;;;;;;9.35;2.05;;;13.80;99.90;;;;;;5111954;28;20047;-68
2022/09/19 09:12:32;;;;;;;14.80;1.90;;;13.90;99.90;;;;;;5110745;28;20039;-68
2022/09/19 09:15:18;;;;;;;15.00;2.30;;;14.10;99.90;;;;;;5111774;28;20043;-68
2022/09/19 09:18:05;;;;;;;12.70;2.35;;;14.10;99.90;;;;;;5112131;28;20435;-68
2022/09/19 09:20:57;;;;;;;11.95;1.77;;;14.10;99.90;;;;;;5111852;28;20085;-68
2022/09/19 09:23:33;;;;;;;20.17;2.22;;;14.20;99.90;;;;;;5110660;28;20044;-68
2022/09/19 09:26:02;;;;;;;15.05;2.40;;;14.30;99.90;;;;;;5111658;28;20089;-68
2022/09/19 09:28:42;;;;;;;21.95;2.80;;;14.40;99.90;;;;;;5110587;28;20127;-68
2022/09/19 09:31:29;;;;;;;12.15;1.98;;;14.40;99.90;;;;;;5110644;28;20059;-68
2022/09/19 09:34:03;;;;;;;14.77;2.00;;;14.40;99.90;;;;;;5111653;28;20051;-68
2022/09/19 09:36:42;;;;;;;11.35;2.13;;;14.50;99.90;;;;;;5110717;28;20231;-68
2022/09/19 09:39:19;;;;;;;11.50;1.90;;;14.50;99.90;;;;;;5110751;28;20043;-67
2022/09/19 09:41:49;;;;;;;16.52;2.35;;;14.60;99.90;;;;;;5111963;28;20039;-67
2022/09/19 09:44:47;;;;;;;11.93;2.13;;;14.80;99.90;;;;;;5111521;28;20063;-68
2022/09/19 09:47:24;;;;;;;16.90;2.40;;;14.70;99.90;;;;;;5113253;28;20040;-67
2022/09/19 09:49:53;;;;;;;15.65;2.00;;;14.80;99.90;;;;;;5114117;28;20054;-68
2022/09/19 09:52:47;;;;;;;10.80;1.80;;;14.80;99.90;;;;;;5115648;27;20067;-68
2022/09/19 09:58:58;;;;;;;11.52;2.15;;;14.60;99.90;;;;;;5096707;28;20142;-68
2022/09/19 10:04:36;;;;;;;15.60;2.17;;;14.60;99.90;;;;;;5093045;28;20051;-67
2022/09/19 10:07:58;;;;;;;5.80;2.28;;;14.70;99.90;;;;;;5101360;28;20507;-67
2022/09/19 10:10:27;;;;;;;9.27;1.88;;;14.70;99.90;;;;;;5053901;28;20041;-67
2022/09/19 10:13:02;;;;;;;9.48;1.50;;;14.70;99.90;;;;;;5091982;28;20079;-68
2022/09/19 10:15:31;;;;;;;12.40;2.33;;;14.70;99.90;;;;;;5100265;28;20036;-67
2022/09/19 10:18:07;;;;;;;10.68;1.88;;;14.80;99.90;;;;;;5113586;28;20583;-67
2022/09/19 10:20:49;;;;;;;19.95;1.92;;;14.80;99.90;;;;;;5112705;28;20038;-70
2022/09/19 10:23:19;;;;;;;11.20;2.03;;;14.80;99.90;;;;;;5114125;28;20512;-70
2022/09/19 10:25:48;;;;;;;17.50;2.53;;;14.90;99.90;;;;;;5099170;28;20043;-67
2022/09/19 10:28:26;;;;;;;11.75;1.65;;;15.00;99.90;;;;;;5113499;28;20105;-67
2022/09/19 10:30:59;;;;;;;16.70;2.15;;;15.10;99.90;;;;;;5100503;28;20034;-67
2022/09/19 10:33:38;;;;;;;;;;;15.20;99.90;;;;;;5113675;28;20429;-67
2022/09/19 10:36:25;;;;;;;18.98;2.97;;;15.20;99.90;;;;;;5113325;28;19960;-67
2022/09/19 10:38:58;;;;;;;15.77;2.55;;;15.30;99.90;;;;;;5113362;27;20047;-68
2022/09/19 10:41:28;;;;;;;12.18;2.38;;;15.30;99.90;;;;;;5113533;27;20036;-68
2022/09/19 10:43:59;;;;;;;11.95;2.10;;;15.40;99.90;;;;;;5112619;28;20047;-67
2022/09/19 10:46:35;;;;;;;22.63;2.22;;;15.50;99.90;;;;;;5113507;28;20040;-67
2022/09/19 10:49:13;;;;;;;10.15;1.45;;;15.30;99.90;;;;;;5112985;28;20044;-67
2022/09/19 10:51:44;;;;;;;9.05;1.60;;;15.20;99.90;;;;;;5111849;28;20050;-67
2022/09/19 10:54:20;;;;;;;8.40;1.40;;;15.00;99.90;;;;;;5112441;28;20043;-70
2022/09/19 10:56:46;;;;;;;12.45;3.08;;;15.00;99.90;;;;;;5113443;28;20510;-70
2022/09/19 10:59:12;;;;;;;7.38;1.70;;;15.00;99.90;;;;;;5112827;28;20160;-70
2022/09/19 11:01:39;;;;;;;15.57;2.05;;;15.10;99.90;;;;;;5113068;27;20071;-70
2022/09/19 11:04:23;;;;;;;10.50;2.03;;;15.10;99.90;;;;;;5098604;28;20036;-70
2022/09/19 11:06:56;;;;;;;6.45;0.93;;;15.10;99.90;;;;;;5099386;28;20047;-70
2022/09/19 11:09:27;;;;;;;4.53;1.10;;;15.00;99.90;;;;;;5112389;28;20042;-72
2022/09/19 11:12:05;;;;;;;4.60;1.40;;;14.90;99.90;;;;;;5112812;28;20047;-70
2022/09/19 11:14:37;;;;;;;9.60;1.10;;;14.90;99.90;;;;;;5112433;28;20395;-70
2022/09/19 11:17:29;;;;;;;4.88;1.02;;;15.00;99.90;;;;;;5112751;28;20032;-70
2022/09/19 11:20:50;;;;;;;5.13;1.00;;;14.90;99.90;;;;;;5111179;28;20035;-70
2022/09/19 11:23:44;;;;;;;8.93;1.27;;;14.80;99.90;;;;;;5052414;28;20475;-70
2022/09/19 11:26:42;;;;;;;6.93;1.23;;;14.80;99.90;;;;;;5112034;28;20132;-70
2022/09/19 11:29:26;;;;;;;4.93;1.50;;;14.90;99.90;;;;;;5087349;28;20070;-70
2022/09/19 11:32:18;;;;;;;8.00;1.73;;;15.00;99.90;;;;;;5073294;28;20036;-71
2022/09/19 11:35:13;;;;;;;10.63;1.63;;;15.10;99.90;;;;;;5090420;28;20044;-71
2022/09/19 11:37:54;;;;;;;6.05;1.52;;;15.10;99.90;;;;;;5090722;28;20392;-71
2022/09/19 11:40:56;;;;;;;12.43;1.75;;;15.10;99.90;;;;;;5091369;28;21103;-70
2022/09/19 11:43:42;;;;;;;14.35;1.77;;;15.20;99.90;;;;;;5091442;28;20071;-70
2022/09/19 11:46:15;;;;;;;9.18;1.65;;;15.20;99.90;;;;;;5090178;28;20515;-69
2022/09/19 11:49:13;;;;;;;10.45;1.65;;;15.20;99.90;;;;;;5091426;28;20093;-68
2022/09/19 11:51:50;;;;;;;8.55;1.67;;;15.30;99.90;;;;;;5075793;28;20142;-68
2022/09/19 11:54:57;;;;;;;11.52;2.15;;;15.50;99.90;;;;;;5091004;28;20071;-68
2022/09/19 11:57:50;;;;;;;11.38;1.90;;;15.40;99.90;;;;;;5091259;28;20553;-68
2022/09/19 12:00:26;;;;;;;14.00;2.20;;;15.60;99.90;;;;;;5090074;28;20040;-67
2022/09/19 12:02:58;;;;;;;17.02;3.10;;;15.70;99.90;;;;;;5091071;28;20500;-67
2022/09/19 12:05:31;;;;;;;13.90;2.42;;;15.50;99.90;;;;;;5101918;28;20040;-67
2022/09/19 12:08:15;;;;;;;;;;;15.40;99.90;;;;;;5110589;28;20048;-67
2022/09/19 12:10:50;;;;;;;13.38;2.15;;;15.40;99.90;;;;;;5110903;28;19916;-68
2022/09/19 12:13:19;;;;;;;11.13;1.90;;;15.20;99.90;;;;;;5111484;28;20066;-73
2022/09/19 12:15:51;;;;;;;8.95;2.03;;;14.90;99.90;;;;;;5092186;28;20040;-72
2022/09/19 12:18:35;;;;;;;13.50;2.17;;;14.80;99.90;;;;;;5093083;28;20040;-68
2022/09/19 12:21:04;;;;;;;8.85;1.50;;;14.70;99.90;;;;;;5093585;28;20043;-74
2022/09/19 12:26:23;;;;;;;12.40;1.85;;;14.50;99.90;;;;;;5093120;28;20040;-73
2022/09/19 12:29:00;;;;;;;12.18;1.98;;;14.30;99.90;;;;;;5094410;28;20553;-73
2022/09/19 12:31:36;;;;;;;5.68;1.40;;;14.20;99.90;;;;;;5099487;28;20040;-74
2022/09/19 12:34:14;;;;;;;6.97;1.60;;;14.10;99.90;;;;;;5093996;28;20040;-75
2022/09/19 12:37:03;;;;;;;6.63;1.50;;;14.10;99.90;;;;;;5086045;28;20059;-75
2022/09/19 12:39:57;;;;;;;5.10;1.40;;;14.00;99.90;;;;;;5092653;28;20032;-76
2022/09/19 12:42:44;;;;;;;8.90;1.67;;;14.00;99.90;;;;;;5092870;28;20170;-76
2022/09/19 12:45:19;;;;;;;4.63;1.50;;;14.00;99.90;;;;;;5094594;28;20044;-75
2022/09/19 12:48:01;;;;;;;12.80;1.92;;;13.90;99.90;;;;;;5089237;28;20047;-75
2022/09/19 12:50:46;;;;;;;7.50;1.25;;;13.80;99.90;;;;;;5095621;28;20036;-75
2022/09/19 12:53:36;;;;;;;5.15;1.65;;;13.90;99.90;;;;;;5094253;28;20055;-75
2022/09/19 12:56:13;;;;;;;6.78;1.10;;;13.80;99.90;;;;;;5072524;28;20104;-75
2022/09/19 12:59:15;;;;;;;5.53;1.10;;;13.90;99.90;;;;;;5092034;28;20043;-74
2022/09/19 13:01:56;;;;;;;7.00;1.15;;;13.90;99.90;;;;;;5092538;28;20377;-74
2022/09/19 13:04:59;;;;;;;5.47;1.45;;;14.00;99.90;;;;;;5104119;28;20388;-73
2022/09/19 13:07:54;;;;;;;4.20;1.50;;;14.10;99.90;;;;;;5090200;28;20415;-72
2022/09/19 13:10:26;;;;;;;6.93;1.30;;;14.20;99.90;;;;;;5072212;28;20051;-71
2022/09/19 13:13:03;;;;;;;6.93;1.30;;;14.20;99.90;;;;;;5092154;28;20556;-71
2022/09/19 13:15:38;;;;;;;5.57;1.27;;;14.30;99.90;;;;;;5098212;28;20047;-70
2022/09/19 13:23:39;;;;;;;10.95;2.22;;;14.40;99.90;;;;;;5094225;28;20040;-71
2022/09/19 13:26:19;;;;;;;10.93;1.60;;;14.50;99.90;;;;;;5096191;28;20035;-70
2022/09/19 13:28:47;;;;;;;8.60;1.88;;;14.50;99.90;;;;;;5096187;28;20062;-71
2022/09/19 13:31:17;;;;;;;14.20;2.25;;;14.50;99.90;;;;;;5103620;28;20036;-73
2022/09/19 13:33:52;;;;;;;13.93;2.20;;;14.50;99.90;;;;;;5093398;28;20040;-68